Time;durP1;ratioP1;P1;durP2;ratioP2;P2;SDS_P1;SDS_P2;PMS_P1;PMS_P2;Temp;Humidity;BMP_temperature;BMP_pressure;BME280_temperature;BME280_humidity;BME280_pressure;Samples;Min_cycle;Max_cycle;Signal;HPM_P1;HPM_P2
2022/12/11 00:03:37;;;;;;;26.75;13.48;;;;;;;0.65;67.06;99862.72;10437403;28;20049;-62
2022/12/11 00:08:39;;;;;;;32.85;14.80;;;;;;;0.73;66.24;99869.09;10434239;28;20044;-62
2022/12/11 00:13:41;;;;;;;34.60;14.90;;;;;;;0.82;66.55;99866.66;10440263;28;20049;-62
2022/12/11 00:18:43;;;;;;;29.42;13.05;;;;;;;0.91;66.93;99863.25;10433482;28;20393;-62
2022/12/11 00:23:44;;;;;;;31.13;13.63;;;;;;;0.95;66.31;99865.53;10436272;28;20571;-66
2022/12/11 00:28:46;;;;;;;32.80;14.70;;;;;;;1.04;67.04;99855.16;10435494;28;20061;-63
2022/12/11 00:33:48;;;;;;;33.35;14.70;;;;;;;1.11;66.90;99853.69;10432767;28;20470;-62
2022/12/11 00:38:51;;;;;;;35.72;15.30;;;;;;;1.17;66.84;99855.81;10436472;28;20069;-62
2022/12/11 00:43:53;;;;;;;30.33;14.60;;;;;;;1.21;66.56;99869.63;10437098;28;20061;-64
2022/12/11 00:48:54;;;;;;;31.15;13.65;;;;;;;1.29;66.05;99872.47;10435006;28;20108;-66
2022/12/11 00:53:56;;;;;;;30.77;13.98;;;;;;;1.37;66.99;99864.72;10436682;28;20107;-62
2022/12/11 00:58:57;;;;;;;32.83;15.10;;;;;;;1.43;66.43;99868.69;10434942;28;20065;-63
2022/12/11 01:03:59;;;;;;;32.10;15.73;;;;;;;1.42;67.13;99862.50;10426689;28;20068;-63
2022/12/11 01:14:20;;;;;;;34.72;15.10;;;;;;;1.38;67.03;99872.56;10427985;28;20123;-63
2022/12/11 01:19:21;;;;;;;35.47;16.42;;;;;;;1.39;67.15;99881.31;10415075;28;20092;-61
2022/12/11 01:24:26;;;;;;;34.40;16.15;;;;;;;1.30;66.50;99869.69;10391528;28;20072;-62
2022/12/11 01:29:27;;;;;;;29.70;14.45;;;;;;;1.37;66.91;99868.22;10385600;28;20052;-64
2022/12/11 01:34:29;;;;;;;32.83;15.23;;;;;;;1.43;66.78;99855.44;10389728;28;20041;-62
2022/12/11 01:39:31;;;;;;;33.95;15.50;;;;;;;1.39;66.84;99866.28;10387651;28;20496;-63
2022/12/11 01:44:32;;;;;;;35.70;15.23;;;;;;;1.46;66.43;99850.72;10389165;28;20114;-62
2022/12/11 01:49:35;;;;;;;33.28;16.00;;;;;;;1.53;66.12;99858.97;10390961;28;20049;-63
2022/12/11 01:54:37;;;;;;;34.28;14.88;;;;;;;1.55;66.93;99857.88;10391693;28;20124;-62
2022/12/11 01:59:42;;;;;;;31.60;14.23;;;;;;;1.59;66.94;99869.03;10389457;28;20061;-63
2022/12/11 02:04:45;;;;;;;33.17;15.30;;;;;;;1.69;66.77;99862.00;10389999;28;20079;-65
2022/12/11 02:09:47;;;;;;;30.27;13.82;;;;;;;1.77;66.62;99864.00;10400015;28;20045;-61
2022/12/11 02:15:15;;;;;;;29.95;14.75;;;;;;;1.78;67.11;99865.69;10429530;28;20106;-64
2022/12/11 02:20:26;;;;;;;;;;;;;;;1.82;66.56;99853.84;10425897;28;20088;-64
2022/12/11 02:25:55;;;;;;;37.00;16.20;;;;;;;1.80;66.55;99869.03;10427058;28;20359;-61
2022/12/11 02:31:13;;;;;;;33.80;15.88;;;;;;;1.78;67.44;99863.88;10429071;28;20128;-63
2022/12/11 02:36:17;;;;;;;30.63;14.25;;;;;;;1.71;67.55;99868.00;10429245;28;20039;-63
2022/12/11 02:41:22;;;;;;;40.45;16.38;;;;;;;1.62;67.44;99874.09;10426678;28;20124;-62
2022/12/11 02:46:24;;;;;;;38.20;16.92;;;;;;;1.62;67.89;99875.88;10423839;28;20042;-63
2022/12/11 02:51:31;;;;;;;39.28;17.38;;;;;;;1.64;67.93;99874.81;10430974;28;20136;-63
2022/12/11 02:56:39;;;;;;;31.47;12.90;;;;;;;1.58;67.47;99873.50;10429819;28;20778;-61
2022/12/11 03:01:41;;;;;;;;;;;;;;;1.54;67.68;99869.44;10431127;28;20072;-63
2022/12/11 03:06:48;;;;;;;38.05;15.88;;;;;;;1.48;67.84;99858.50;10431536;28;19971;-62
2022/12/11 03:11:50;;;;;;;40.53;16.83;;;;;;;1.53;67.97;99862.44;10426648;28;20068;-62
2022/12/11 03:17:03;;;;;;;41.58;19.50;;;;;;;1.58;67.89;99870.88;10427928;28;20045;-64
2022/12/11 03:22:14;;;;;;;33.40;15.43;;;;;;;1.55;67.63;99870.28;10425435;28;20069;-62
2022/12/11 03:27:35;;;;;;;40.08;16.42;;;;;;;1.58;67.28;99865.56;10422539;28;20053;-63
2022/12/11 03:32:48;;;;;;;38.03;15.55;;;;;;;1.59;68.43;99863.75;10428495;28;20064;-63
2022/12/11 03:37:52;;;;;;;39.60;17.45;;;;;;;1.62;67.37;99849.41;10428384;28;20103;-63
2022/12/11 03:42:56;;;;;;;39.38;15.93;;;;;;;1.67;67.96;99863.09;10425155;28;20085;-65
2022/12/11 03:48:00;;;;;;;37.70;16.88;;;;;;;1.67;67.82;99865.75;10425500;28;20038;-64
2022/12/11 03:53:03;;;;;;;36.83;16.65;;;;;;;1.71;67.40;99865.34;10428319;28;20443;-63
2022/12/11 03:58:05;;;;;;;36.20;16.20;;;;;;;1.69;68.16;99862.00;10425345;28;20069;-62
2022/12/11 04:03:12;;;;;;;37.22;16.05;;;;;;;1.68;67.69;99856.81;10422219;28;20041;-63
2022/12/11 04:08:16;;;;;;;37.70;17.08;;;;;;;1.66;68.11;99862.28;10428452;28;20037;-62
2022/12/11 04:13:18;;;;;;;39.45;16.65;;;;;;;1.64;68.22;99853.63;10430211;28;20056;-64
2022/12/11 04:29:14;;;;;;;42.42;17.58;;;;;;;1.71;68.02;99860.03;10413734;28;20040;-63
2022/12/11 04:34:15;;;;;;;40.72;17.13;;;;;;;1.71;68.09;99854.75;10433950;28;20136;-62
2022/12/11 04:39:17;;;;;;;44.53;18.05;;;;;;;1.74;67.48;99854.50;10431856;28;20080;-63
2022/12/11 04:44:18;;;;;;;38.05;17.33;;;;;;;1.75;68.51;99855.34;10428717;28;20136;-63
2022/12/11 04:49:19;;;;;;;38.72;19.00;;;;;;;1.68;68.32;99849.72;10433571;28;20175;-62
2022/12/11 04:54:21;;;;;;;39.47;18.00;;;;;;;1.65;67.75;99860.56;10436915;28;20551;-62
2022/12/11 04:59:22;;;;;;;42.92;18.20;;;;;;;1.65;68.68;99860.56;10433928;28;20127;-65
2022/12/11 05:04:24;;;;;;;42.72;19.85;;;;;;;1.66;67.65;99846.38;10433810;28;20053;-64
2022/12/11 05:09:26;;;;;;;42.97;19.25;;;;;;;1.69;67.99;99840.78;10440826;28;20132;-65
2022/12/11 05:14:30;;;;;;;38.70;16.70;;;;;;;1.65;68.24;99839.38;10432408;28;20093;-66
2022/12/11 05:19:32;;;;;;;47.83;20.17;;;;;;;1.63;67.87;99836.03;10429444;28;20083;-64
2022/12/11 05:24:33;;;;;;;45.47;17.85;;;;;;;1.68;68.69;99832.97;10434254;28;20065;-62
2022/12/11 05:29:35;;;;;;;43.45;19.15;;;;;;;1.75;67.86;99828.84;10434592;28;20113;-63
2022/12/11 05:34:36;;;;;;;42.67;19.38;;;;;;;1.73;68.32;99828.13;10431381;28;20132;-65
2022/12/11 05:39:38;;;;;;;41.70;18.73;;;;;;;1.73;68.29;99826.31;10430085;28;20484;-62
2022/12/11 05:44:39;;;;;;;47.10;19.65;;;;;;;1.86;68.43;99836.72;10430285;28;20069;-64
2022/12/11 05:49:40;;;;;;;52.10;23.88;;;;;;;1.93;68.74;99837.84;10430882;28;20041;-63
2022/12/11 05:54:42;;;;;;;46.80;21.50;;;;;;;2.00;68.88;99843.47;10410266;28;20079;-63
2022/12/11 05:59:44;;;;;;;42.30;19.50;;;;;;;2.06;68.38;99832.31;10402585;28;20084;-65
2022/12/11 06:04:45;;;;;;;47.58;21.42;;;;;;;2.04;68.49;99828.97;10431137;28;20063;-63
2022/12/11 06:09:46;;;;;;;46.10;21.08;;;;;;;2.10;68.46;99807.22;10431741;28;20124;-62
2022/12/11 06:14:48;;;;;;;46.40;20.55;;;;;;;2.14;68.61;99811.28;10429089;28;20348;-61
2022/12/11 06:19:49;;;;;;;39.95;18.67;;;;;;;2.15;68.25;99807.66;10434595;28;20116;-64
2022/12/11 06:24:50;;;;;;;44.42;19.85;;;;;;;2.17;68.12;99811.00;10428026;28;20065;-63
2022/12/11 06:29:52;;;;;;;41.15;19.88;;;;;;;2.21;68.48;99813.38;10420943;28;20072;-62
2022/12/11 06:34:53;;;;;;;44.85;19.30;;;;;;;2.17;68.19;99811.00;10417461;28;20142;-64
2022/12/11 06:39:55;;;;;;;42.15;20.42;;;;;;;2.17;68.94;99811.00;10435535;28;20448;-62
2022/12/11 06:44:58;;;;;;;50.67;23.40;;;;;;;2.23;68.64;99801.66;10432828;28;20174;-64
2022/12/11 06:50:01;;;;;;;43.58;20.08;;;;;;;2.20;68.27;99806.41;10433562;28;20116;-63
2022/12/11 06:55:02;;;;;;;50.45;20.85;;;;;;;2.08;68.10;99801.22;10432545;28;20072;-66
2022/12/11 07:00:04;;;;;;;46.35;20.77;;;;;;;2.11;68.60;99805.38;10432022;28;20049;-62
2022/12/11 07:05:06;;;;;;;52.47;19.50;;;;;;;2.17;68.28;99811.00;10396432;28;20053;-63
2022/12/11 07:10:08;;;;;;;45.05;19.80;;;;;;;2.25;67.90;99810.34;10428860;28;20045;-62
2022/12/11 07:15:10;;;;;;;46.13;19.63;;;;;;;2.31;68.71;99817.75;10424489;28;20495;-63
2022/12/11 07:20:11;;;;;;;45.13;19.58;;;;;;;2.37;67.79;99826.97;10412748;28;20086;-64
2022/12/11 07:25:13;;;;;;;43.58;20.35;;;;;;;2.38;68.51;99815.38;10392725;28;20102;-63
2022/12/11 07:30:15;;;;;;;54.92;21.13;;;;;;;2.43;68.25;99820.25;10384712;28;20053;-63
2022/12/11 07:35:16;;;;;;;47.55;21.92;;;;;;;2.43;68.12;99812.31;10387886;28;20069;-64
2022/12/11 07:40:17;;;;;;;46.95;19.92;;;;;;;2.47;67.78;99822.53;10384620;28;20049;-63
2022/12/11 07:45:19;;;;;;;43.45;20.42;;;;;;;2.50;67.76;99832.84;10383634;28;20069;-62
2022/12/11 07:50:21;;;;;;;45.40;20.05;;;;;;;2.51;67.93;99829.22;10386943;28;20073;-63
2022/12/11 07:55:22;;;;;;;49.28;21.73;;;;;;;2.51;68.04;99834.53;10380301;28;20054;-63
2022/12/11 08:00:24;;;;;;;40.42;18.90;;;;;;;2.55;67.77;99832.44;10390007;28;20078;-63
2022/12/11 08:05:25;;;;;;;40.15;19.40;;;;;;;2.56;67.69;99844.72;10387978;28;20115;-63
2022/12/11 08:10:26;;;;;;;45.15;19.42;;;;;;;2.62;67.45;99838.03;10391018;28;20144;-64
2022/12/11 08:15:28;;;;;;;54.28;22.42;;;;;;;2.61;68.15;99839.84;10385463;28;20053;-63
2022/12/11 08:20:29;;;;;;;48.05;21.33;;;;;;;2.58;68.28;99843.59;10388776;28;20085;-63
2022/12/11 08:25:31;;;;;;;53.05;23.42;;;;;;;2.52;67.72;99838.84;10390800;28;20057;-64
2022/12/11 08:30:33;;;;;;;47.72;20.70;;;;;;;2.65;67.74;99835.13;10422156;28;20079;-63
2022/12/11 08:35:38;;;;;;;47.30;20.15;;;;;;;2.71;67.88;99837.22;10434273;28;20098;-63
2022/12/11 08:40:40;;;;;;;44.30;20.58;;;;;;;2.77;67.68;99834.00;10424438;28;20100;-64
2022/12/11 08:45:41;;;;;;;43.55;19.58;;;;;;;2.74;67.63;99823.66;10433421;28;20128;-64
2022/12/11 08:50:43;;;;;;;43.50;19.65;;;;;;;2.84;67.66;99823.66;10432131;28;20099;-63
2022/12/11 08:55:44;;;;;;;42.00;21.05;;;;;;;2.88;67.43;99825.88;10432297;28;20098;-64
2022/12/11 09:00:45;;;;;;;44.58;19.45;;;;;;;2.83;68.00;99827.31;10432713;28;20508;-64
2022/12/11 09:05:47;;;;;;;48.30;20.02;;;;;;;2.77;68.20;99831.34;10430697;28;20113;-64
2022/12/11 09:10:48;;;;;;;44.72;20.35;;;;;;;2.82;67.49;99831.75;10424215;28;20084;-63
2022/12/11 09:15:50;;;;;;;43.60;18.85;;;;;;;2.85;67.85;99836.81;10425319;28;20045;-64
2022/12/11 09:21:02;;;;;;;43.67;19.13;;;;;;;2.83;67.80;99836.09;10428654;28;20392;-63
2022/12/11 09:26:05;;;;;;;48.38;21.58;;;;;;;2.80;67.56;99831.06;10428597;28;20163;-64
2022/12/11 09:31:09;;;;;;;42.50;20.67;;;;;;;2.81;67.71;99835.41;10426411;28;20049;-64
2022/12/11 09:36:11;;;;;;;48.30;21.08;;;;;;;2.87;67.89;99839.31;10427734;28;20569;-64
2022/12/11 09:41:21;;;;;;;42.67;19.15;;;;;;;2.94;67.40;99838.63;10426472;28;20098;-65
2022/12/11 09:46:23;;;;;;;46.83;20.88;;;;;;;3.11;67.62;99829.09;10427026;28;20053;-63
2022/12/11 09:51:35;;;;;;;46.45;20.17;;;;;;;3.16;67.32;99823.41;10428480;28;20050;-64
2022/12/11 09:57:15;;;;;;;45.30;19.75;;;;;;;3.24;67.31;99822.66;10426743;28;20041;-64
2022/12/11 10:02:33;;;;;;;42.20;20.17;;;;;;;3.26;67.52;99812.72;10438266;28;20519;-64
2022/12/11 10:07:48;;;;;;;37.42;15.52;;;;;;;3.31;67.09;99815.81;10441156;28;20145;-63
2022/12/11 10:12:58;;;;;;;46.55;20.33;;;;;;;3.36;67.47;99809.09;10451426;28;20124;-65
2022/12/11 10:18:03;;;;;;;46.60;21.85;;;;;;;3.33;67.21;99809.38;10429141;28;20148;-64
2022/12/11 10:23:08;;;;;;;43.90;20.88;;;;;;;3.33;67.00;99811.19;10436069;28;20047;-65
2022/12/11 10:28:15;;;;;;;44.17;20.80;;;;;;;3.36;66.84;99814.41;10440632;28;20081;-66
2022/12/11 10:33:22;;;;;;;47.37;21.67;;;;;;;3.40;67.08;99814.09;10436794;28;20077;-66
2022/12/11 10:38:27;;;;;;;43.80;19.63;;;;;;;3.35;67.12;99810.06;10445488;28;20041;-65
2022/12/11 10:43:38;;;;;;;48.03;21.23;;;;;;;3.34;66.83;99807.56;10439572;28;20037;-65
2022/12/11 10:48:58;;;;;;;50.50;23.73;;;;;;;3.32;66.70;99801.56;10438914;28;20475;-66
2022/12/11 10:54:31;;;;;;;52.83;23.27;;;;;;;3.32;67.11;99802.41;10430471;28;20060;-66
2022/12/11 10:59:48;;;;;;;51.05;22.58;;;;;;;3.32;66.79;99790.94;10437796;28;20057;-65
2022/12/11 11:04:50;;;;;;;58.45;23.73;;;;;;;3.37;66.99;99781.53;10423089;28;20500;-65
2022/12/11 11:10:09;;;;;;;56.20;24.45;;;;;;;3.38;66.55;99769.94;10437714;28;20045;-65
2022/12/11 11:15:18;;;;;;;51.20;24.23;;;;;;;3.37;66.83;99762.94;10439020;28;20060;-65
2022/12/11 11:20:26;;;;;;;50.22;22.58;;;;;;;3.38;66.60;99764.63;10437805;28;20112;-65
2022/12/11 11:25:31;;;;;;;51.42;23.65;;;;;;;3.49;66.72;99763.59;10437901;28;20053;-66
2022/12/11 11:30:36;;;;;;;46.72;21.45;;;;;;;3.51;66.47;99752.84;10439261;28;20053;-65
2022/12/11 11:35:37;;;;;;;39.03;18.35;;;;;;;3.57;66.66;99753.09;10429321;28;20060;-65
2022/12/11 11:40:52;;;;;;;43.00;18.30;;;;;;;3.60;66.24;99746.66;10426224;28;20352;-65
2022/12/11 11:46:03;;;;;;;38.45;16.50;;;;;;;3.66;66.16;99746.06;10431714;28;20056;-66
2022/12/11 11:51:21;;;;;;;41.17;18.52;;;;;;;3.76;66.21;99740.72;10421598;28;20128;-66
2022/12/11 11:56:27;;;;;;;45.55;20.33;;;;;;;3.83;66.15;99731.19;10424499;28;20072;-65
2022/12/11 12:01:29;;;;;;;40.50;18.83;;;;;;;3.91;65.68;99733.06;10424775;28;20080;-65
2022/12/11 12:07:06;;;;;;;40.60;19.38;;;;;;;3.93;65.87;99731.94;10444476;28;20073;-69
2022/12/11 12:12:16;;;;;;;37.67;16.80;;;;;;;3.80;65.54;99730.63;10427061;28;20068;-67
2022/12/11 12:17:34;;;;;;;35.78;16.30;;;;;;;3.84;65.70;99716.06;10444477;28;20060;-64
2022/12/11 12:22:50;;;;;;;38.33;16.52;;;;;;;3.83;65.51;99719.69;10886931;22;20107;-64
2022/12/11 12:28:16;;;;;;;37.60;16.67;;;;;;;3.82;65.53;99712.72;10449791;28;20056;-65
2022/12/11 12:33:32;;;;;;;32.78;14.48;;;;;;;3.71;65.19;99719.03;10431885;28;20092;-65
2022/12/11 12:38:51;;;;;;;36.00;16.88;;;;;;;3.73;65.30;99720.59;10423239;28;20088;-67
2022/12/11 12:44:12;;;;;;;36.35;17.45;;;;;;;3.72;65.13;99723.38;10423017;28;20091;-65
2022/12/11 12:49:37;;;;;;;38.28;15.50;;;;;;;3.66;65.34;99732.78;10429680;28;20428;-65
2022/12/11 12:54:41;;;;;;;41.53;18.35;;;;;;;3.66;65.39;99723.97;10427028;28;20139;-66
2022/12/11 12:59:53;;;;;;;40.22;17.88;;;;;;;3.66;65.29;99721.31;10428836;28;20128;-66
2022/12/11 13:05:21;;;;;;;37.67;17.08;;;;;;;3.68;65.31;99709.56;10405621;28;20073;-67
2022/12/11 13:10:37;;;;;;;37.85;17.42;;;;;;;3.62;65.13;99706.66;10406085;28;20050;-66
2022/12/11 13:15:43;;;;;;;33.10;15.68;;;;;;;3.66;65.26;99708.84;10406433;28;20140;-68
2022/12/11 13:20:49;;;;;;;31.95;14.32;;;;;;;3.70;65.14;99709.41;10378411;28;20137;-67
2022/12/11 13:25:54;;;;;;;27.73;13.18;;;;;;;3.54;65.35;99721.50;10348400;28;20062;-68
2022/12/11 13:31:03;;;;;;;31.45;13.57;;;;;;;3.38;65.52;99722.13;10347940;28;20099;-66
2022/12/11 13:36:32;;;;;;;27.73;12.55;;;;;;;3.29;65.18;99722.16;10367029;28;20132;-67
2022/12/11 13:41:36;;;;;;;23.10;10.70;;;;;;;3.15;65.29;99731.41;10367884;28;20140;-66
2022/12/11 13:46:38;;;;;;;28.48;11.15;;;;;;;3.21;64.77;99725.53;10365964;28;20048;-66
2022/12/11 13:51:51;;;;;;;28.92;12.27;;;;;;;3.24;65.14;99717.28;10366492;28;20073;-66
2022/12/11 13:57:06;;;;;;;23.80;10.85;;;;;;;3.29;64.51;99730.94;10364262;28;20129;-69
2022/12/11 14:02:19;;;;;;;27.67;11.50;;;;;;;3.16;64.77;99730.44;10364947;28;20084;-69
2022/12/11 14:07:29;;;;;;;22.08;9.75;;;;;;;2.83;65.44;99737.91;10365297;28;20157;-68
2022/12/11 14:12:31;;;;;;;26.00;10.18;;;;;;;2.92;65.31;99722.94;10367588;28;20069;-67
2022/12/11 14:17:35;;;;;;;20.05;8.75;;;;;;;2.98;64.97;99720.56;10381139;28;20081;-66
2022/12/11 14:22:36;;;;;;;25.08;10.73;;;;;;;2.98;65.13;99725.88;10346893;28;20432;-70
2022/12/11 14:27:47;;;;;;;25.25;9.40;;;;;;;2.93;65.20;99721.97;10354038;28;20128;-68
2022/12/11 14:32:51;;;;;;;29.30;11.50;;;;;;;2.98;64.72;99722.34;10361244;28;20069;-68
2022/12/11 14:37:53;;;;;;;26.75;10.32;;;;;;;3.00;64.59;99731.00;10364162;28;20068;-69
2022/12/11 14:43:00;;;;;;;28.05;11.68;;;;;;;3.11;64.21;99740.66;10363206;28;20137;-68
2022/12/11 14:48:15;;;;;;;20.77;9.07;;;;;;;3.24;63.89;99738.53;10388434;28;20088;-68
2022/12/11 14:53:21;;;;;;;25.42;12.00;;;;;;;3.26;64.44;99744.53;10401144;28;20323;-70
2022/12/11 14:58:25;;;;;;;24.73;12.05;;;;;;;3.32;64.27;99751.94;10403653;28;20141;-69
2022/12/11 15:03:35;;;;;;;21.27;9.05;;;;;;;3.16;64.82;99751.69;10405349;28;20075;-67
2022/12/11 15:08:37;;;;;;;25.55;11.23;;;;;;;3.10;64.53;99752.25;10404938;28;20144;-68
2022/12/11 15:14:01;;;;;;;26.92;10.32;;;;;;;3.10;64.53;99749.59;10403740;28;20302;-67
2022/12/11 15:19:03;;;;;;;30.83;12.38;;;;;;;3.05;64.60;99749.19;10400185;28;20667;-66
2022/12/11 15:24:05;;;;;;;27.75;11.52;;;;;;;3.03;65.11;99754.63;10399118;28;20135;-66
2022/12/11 15:29:30;;;;;;;24.77;11.25;;;;;;;3.04;64.96;99756.31;10401400;28;20482;-66
2022/12/11 15:34:52;;;;;;;27.75;11.98;;;;;;;3.04;64.90;99760.78;10402427;28;20429;-67
2022/12/11 15:39:55;;;;;;;28.92;12.25;;;;;;;2.91;64.83;99767.22;10398293;28;20105;-67
2022/12/11 15:44:58;;;;;;;26.75;12.52;;;;;;;2.84;65.21;99767.94;10397594;28;20041;-67
2022/12/11 15:50:15;;;;;;;23.92;11.70;;;;;;;2.79;65.86;99768.34;10402677;28;20128;-67
2022/12/11 15:55:18;;;;;;;23.67;10.50;;;;;;;2.77;65.77;99762.34;10379839;28;20091;-66
2022/12/11 16:00:21;;;;;;;29.10;10.95;;;;;;;2.69;65.76;99770.19;10367277;28;20739;-63
2022/12/11 16:05:23;;;;;;;36.05;14.48;;;;;;;2.53;65.78;99773.38;10407371;28;20447;-65
2022/12/11 16:10:25;;;;;;;31.42;13.43;;;;;;;2.54;65.58;99777.69;10426743;28;20072;-61
2022/12/11 16:15:27;;;;;;;32.63;13.98;;;;;;;2.66;65.75;99781.06;10426927;28;20064;-66
2022/12/11 16:20:30;;;;;;;34.85;14.73;;;;;;;2.75;65.22;99786.38;10413210;28;20060;-64
2022/12/11 16:25:32;;;;;;;35.75;14.38;;;;;;;2.70;65.79;99785.09;10437425;28;20053;-65
2022/12/11 16:30:35;;;;;;;35.25;15.07;;;;;;;2.78;65.75;99785.25;10433672;28;20069;-63
2022/12/11 16:35:37;;;;;;;35.38;13.57;;;;;;;2.84;65.31;99774.06;10418766;28;20049;-64
2022/12/11 16:40:40;;;;;;;36.20;15.48;;;;;;;2.68;65.67;99773.81;10439586;28;20041;-63
2022/12/11 16:45:41;;;;;;;36.95;14.85;;;;;;;2.64;66.48;99781.19;10429108;28;20037;-63
2022/12/11 16:50:43;;;;;;;48.35;17.63;;;;;;;2.57;66.34;99774.78;10452674;28;20114;-64
2022/12/11 16:55:44;;;;;;;37.20;15.57;;;;;;;2.66;66.52;99776.59;10450320;28;20056;-64
2022/12/11 17:00:47;;;;;;;38.60;16.38;;;;;;;2.62;66.60;99777.00;10425782;28;20120;-64
2022/12/11 17:05:48;;;;;;;39.72;15.10;;;;;;;2.68;66.57;99768.50;10409280;28;20072;-66
2022/12/11 17:10:51;;;;;;;35.95;16.25;;;;;;;2.74;67.06;99765.28;10410878;28;20050;-64
2022/12/11 17:15:52;;;;;;;34.20;16.10;;;;;;;2.76;67.41;99760.66;10429429;28;20045;-62
2022/12/11 17:20:54;;;;;;;42.83;14.93;;;;;;;2.75;67.24;99753.69;10397051;28;20109;-63
2022/12/11 17:25:55;;;;;;;43.33;15.55;;;;;;;2.80;67.91;99759.41;10418613;28;20092;-63
2022/12/11 17:30:57;;;;;;;38.20;15.23;;;;;;;2.75;67.92;99759.00;10412469;28;20113;-60
2022/12/11 17:36:00;;;;;;;31.30;12.00;;;;;;;2.78;68.17;99750.75;10410406;28;20041;-63
2022/12/11 17:41:10;;;;;;;28.92;12.18;;;;;;;2.84;67.86;99750.19;10414410;28;20073;-61
2022/12/11 17:46:20;;;;;;;34.13;14.05;;;;;;;2.94;67.49;99750.16;10425905;28;20195;-63
2022/12/11 17:51:23;;;;;;;42.97;17.60;;;;;;;3.00;67.05;99746.94;10430372;28;20110;-64
2022/12/11 17:56:26;;;;;;;35.45;16.13;;;;;;;2.98;67.66;99740.94;10389180;28;20122;-62
2022/12/11 18:01:27;;;;;;;42.90;17.58;;;;;;;2.96;68.40;99741.09;10391611;28;20046;-64
2022/12/11 18:06:30;;;;;;;33.83;15.82;;;;;;;2.95;68.17;99742.06;10421942;28;20060;-65
2022/12/11 18:11:31;;;;;;;44.53;16.48;;;;;;;2.90;68.64;99743.47;10430413;28;20056;-62
2022/12/11 18:16:36;;;;;;;42.10;17.80;;;;;;;2.90;68.60;99740.81;10425663;28;20099;-61
2022/12/11 18:21:41;;;;;;;38.72;16.90;;;;;;;2.86;68.41;99744.75;10426368;28;20536;-64
2022/12/11 18:26:43;;;;;;;44.90;17.88;;;;;;;2.93;68.06;99743.19;10376563;28;20038;-63
2022/12/11 18:31:44;;;;;;;43.85;18.55;;;;;;;2.87;68.49;99751.72;10444897;28;20053;-64
2022/12/11 18:36:45;;;;;;;38.58;17.65;;;;;;;2.85;68.89;99745.72;10426009;28;20065;-62
2022/12/11 18:41:47;;;;;;;34.75;15.10;;;;;;;2.79;68.51;99739.16;10396387;28;20052;-64
2022/12/11 18:47:08;;;;;;;37.72;16.38;;;;;;;2.70;68.96;99742.66;10442632;28;20057;-64
2022/12/11 18:52:10;;;;;;;36.17;14.85;;;;;;;2.57;69.61;99749.09;10429111;28;20042;-63
2022/12/11 18:57:11;;;;;;;37.00;15.13;;;;;;;2.69;69.57;99747.13;10393140;28;20054;-63
2022/12/11 19:02:13;;;;;;;35.63;15.68;;;;;;;2.67;69.70;99741.13;10396048;28;20517;-63
2022/12/11 19:07:14;;;;;;;39.58;15.27;;;;;;;2.67;69.03;99745.59;10393472;28;20037;-65
2022/12/11 19:12:15;;;;;;;45.65;17.65;;;;;;;2.59;69.26;99751.59;10397052;28;20365;-66
2022/12/11 19:17:17;;;;;;;46.42;18.13;;;;;;;2.61;69.90;99740.84;10375002;28;20045;-60
2022/12/11 19:22:19;;;;;;;42.38;17.90;;;;;;;2.55;69.55;99732.47;10392059;28;20075;-61
2022/12/11 19:27:20;;;;;;;48.20;20.45;;;;;;;2.57;69.56;99735.81;10428486;28;20049;-60
2022/12/11 19:32:22;;;;;;;47.17;19.25;;;;;;;2.51;69.96;99741.69;10429418;28;20042;-63
2022/12/11 19:37:23;;;;;;;48.72;19.10;;;;;;;2.53;70.06;99742.38;10431517;28;20049;-64
2022/12/11 19:42:25;;;;;;;51.75;20.38;;;;;;;2.51;69.76;99744.34;10421393;28;20246;-62
2022/12/11 19:47:26;;;;;;;47.88;20.55;;;;;;;2.41;70.17;99746.16;10425920;28;20046;-64
2022/12/11 19:52:28;;;;;;;49.25;20.17;;;;;;;2.44;70.27;99750.34;10433496;28;20041;-61
2022/12/11 19:57:33;;;;;;;48.53;18.90;;;;;;;2.45;70.21;99752.84;10433611;28;20049;-61
2022/12/11 20:02:34;;;;;;;54.85;20.98;;;;;;;2.52;70.72;99751.31;10431539;28;20033;-61
2022/12/11 20:07:36;;;;;;;51.17;20.45;;;;;;;2.49;70.44;99754.25;10434363;28;20061;-64
2022/12/11 20:12:37;;;;;;;49.97;20.10;;;;;;;2.58;70.10;99737.47;10436581;28;20041;-61
2022/12/11 20:17:43;;;;;;;58.20;19.92;;;;;;;2.64;70.68;99737.91;10438868;28;20037;-65
2022/12/11 20:22:44;;;;;;;53.85;20.67;;;;;;;2.69;69.82;99741.81;10426769;28;20113;-61
2022/12/11 20:27:46;;;;;;;59.65;22.90;;;;;;;2.69;70.44;99744.47;10434134;28;20041;-64
2022/12/11 20:32:51;;;;;;;48.85;21.27;;;;;;;2.63;70.33;99746.88;10435157;28;20044;-60
2022/12/11 20:37:53;;;;;;;50.88;20.95;;;;;;;2.67;70.44;99741.13;10388387;28;20046;-64
2022/12/11 20:42:54;;;;;;;58.47;21.73;;;;;;;2.78;70.46;99741.00;10401187;28;20042;-60
2022/12/11 20:47:55;;;;;;;60.97;23.00;;;;;;;2.90;70.46;99735.50;10391442;28;20049;-65
2022/12/11 20:52:57;;;;;;;58.55;22.88;;;;;;;2.96;69.69;99742.91;10387366;28;20068;-61
2022/12/11 20:57:58;;;;;;;49.45;21.48;;;;;;;3.01;70.21;99737.19;10388877;28;20038;-61
2022/12/11 21:03:00;;;;;;;50.25;22.27;;;;;;;2.96;69.96;99735.81;10385324;28;20057;-62
2022/12/11 21:08:01;;;;;;;55.85;24.08;;;;;;;3.01;70.21;99737.19;10391300;28;20072;-63
2022/12/11 21:13:03;;;;;;;44.80;20.90;;;;;;;2.98;70.46;99735.63;10421711;28;20042;-61
2022/12/11 21:18:05;;;;;;;62.13;23.52;;;;;;;2.94;70.05;99735.09;10386099;28;20058;-62
2022/12/11 21:23:07;;;;;;;48.28;21.58;;;;;;;2.90;70.02;99724.88;10377858;28;20050;-64
2022/12/11 21:28:08;;;;;;;49.95;21.25;;;;;;;2.90;70.10;99728.41;10430293;28;20354;-65
2022/12/11 21:33:10;;;;;;;64.30;24.40;;;;;;;2.90;70.13;99730.19;10422227;28;20091;-63
2022/12/11 21:38:12;;;;;;;55.83;24.63;;;;;;;2.88;70.70;99727.69;10429424;28;20049;-62
2022/12/11 21:43:14;;;;;;;59.72;24.67;;;;;;;2.87;70.11;99733.97;10421855;28;20578;-61
2022/12/11 21:48:15;;;;;;;49.97;23.77;;;;;;;2.85;70.38;99733.28;10421385;28;20476;-61
2022/12/11 21:53:16;;;;;;;55.97;21.55;;;;;;;2.81;70.70;99736.38;10424256;28;20273;-62
2022/12/11 21:58:18;;;;;;;51.13;21.50;;;;;;;2.77;70.87;99743.78;10422675;28;20060;-62
2022/12/11 22:03:19;;;;;;;48.53;19.88;;;;;;;2.75;70.80;99746.56;10426798;28;20045;-63
2022/12/11 22:08:21;;;;;;;52.38;20.98;;;;;;;2.69;71.12;99746.31;10427920;28;20551;-62
2022/12/11 22:13:22;;;;;;;50.35;21.58;;;;;;;2.68;71.22;99740.13;10428336;28;20053;-62
2022/12/11 22:18:26;;;;;;;53.70;22.15;;;;;;;2.72;70.67;99746.00;10416503;28;20045;-63
2022/12/11 22:23:28;;;;;;;55.83;21.73;;;;;;;2.70;70.58;99743.47;10431298;28;20057;-63
2022/12/11 22:28:29;;;;;;;48.55;19.40;;;;;;;2.67;70.46;99748.25;10420999;28;20069;-63
2022/12/11 22:33:31;;;;;;;49.15;21.25;;;;;;;2.67;71.09;99750.91;10417645;28;20049;-61
2022/12/11 22:38:33;;;;;;;48.97;20.45;;;;;;;2.67;70.73;99746.44;10421450;28;20083;-62
2022/12/11 22:43:34;;;;;;;48.30;22.20;;;;;;;2.67;71.15;99754.41;10428125;28;20037;-59
2022/12/11 22:48:36;;;;;;;56.40;22.13;;;;;;;2.62;71.33;99753.13;10429600;28;20041;-62
2022/12/11 22:53:37;;;;;;;52.55;21.77;;;;;;;2.58;70.76;99757.88;10421693;28;20048;-62
2022/12/11 22:58:39;;;;;;;50.17;21.05;;;;;;;2.55;70.89;99755.53;10425986;28;20137;-59
2022/12/11 23:03:41;;;;;;;49.97;22.55;;;;;;;2.51;71.53;99754.13;10416014;28;20045;-62
2022/12/11 23:08:43;;;;;;;50.90;20.90;;;;;;;2.54;71.10;99754.66;10421949;28;20037;-63
2022/12/11 23:13:44;;;;;;;47.72;21.38;;;;;;;2.52;71.42;99756.63;10415666;28;20053;-62
2022/12/11 23:18:46;;;;;;;46.63;20.17;;;;;;;2.54;71.07;99762.63;10429002;28;20140;-65
2022/12/11 23:23:48;;;;;;;48.75;21.17;;;;;;;2.57;71.69;99758.88;10414189;28;20049;-62
2022/12/11 23:28:49;;;;;;;47.83;21.25;;;;;;;2.62;71.20;99761.09;10404573;28;20049;-62
2022/12/11 23:33:51;;;;;;;47.25;21.38;;;;;;;2.60;71.72;99755.09;10400832;28;20057;-64
2022/12/11 23:38:53;;;;;;;50.33;20.58;;;;;;;2.63;71.43;99760.13;10423911;28;20049;-62